Time;durP1;ratioP1;P1;durP2;ratioP2;P2;SDS_P1;SDS_P2;PMS_P1;PMS_P2;Temp;Humidity;BMP_temperature;BMP_pressure;BME280_temperature;BME280_humidity;BME280_pressure;Samples;Min_cycle;Max_cycle;Signal;HPM_P1;HPM_P2
2023/07/01 00:00:23;;;;;;;0.30;0.30;;;;;;;13.15;100.00;100251.09;5018700;28;20033;-84
2023/07/01 00:02:53;;;;;;;0.47;0.38;;;;;;;13.12;100.00;100250.66;5019050;28;20029;-88
2023/07/01 00:05:19;;;;;;;0.30;0.30;;;;;;;13.04;100.00;100238.19;5035178;28;20033;-86
2023/07/01 00:07:47;;;;;;;0.45;0.40;;;;;;;13.10;100.00;100255.44;5035088;28;20475;-86
2023/07/01 00:10:13;;;;;;;0.30;0.30;;;;;;;13.12;100.00;100258.75;5051291;28;20036;-87
2023/07/01 00:12:39;;;;;;;0.35;0.32;;;;;;;13.11;100.00;100257.09;5051629;28;20115;-84
2023/07/01 00:15:06;;;;;;;0.30;0.30;;;;;;;13.09;100.00;100254.59;5034971;28;20483;-85
2023/07/01 00:17:32;;;;;;;2.03;0.88;;;;;;;13.09;100.00;100261.84;5034581;28;20471;-86
2023/07/01 00:19:57;;;;;;;0.40;0.40;;;;;;;13.04;100.00;100256.25;5018961;28;20044;-82
2023/07/01 00:22:23;;;;;;;0.35;0.32;;;;;;;13.09;100.00;100260.00;5035037;28;20395;-83
2023/07/01 00:24:49;;;;;;;0.40;0.40;;;;;;;13.13;100.00;100266.66;5035265;28;20032;-85
2023/07/01 00:27:14;;;;;;;0.30;0.30;;;;;;;13.14;100.00;100268.31;5018771;28;20472;-89
2023/07/01 00:29:43;;;;;;;0.63;0.40;;;;;;;13.14;100.00;100262.91;5035028;28;20429;-89
2023/07/01 00:32:11;;;;;;;0.30;0.30;;;;;;;13.15;100.00;100258.34;5038741;28;20033;-86
2023/07/01 00:34:45;;;;;;;0.47;0.38;;;;;;;13.21;100.00;100262.94;5022553;28;20055;-86
2023/07/01 00:37:12;;;;;;;0.30;0.30;;;;;;;13.22;100.00;100269.16;5054907;28;20033;-87
2023/07/01 00:39:37;;;;;;;0.20;0.20;;;;;;;13.27;100.00;100272.09;5022083;28;20036;-83
2023/07/01 00:42:05;;;;;;;0.30;0.30;;;;;;;13.28;100.00;100271.88;5038800;28;20058;-87
2023/07/01 00:44:33;;;;;;;0.63;0.40;;;;;;;13.29;100.00;100270.03;5054998;28;20501;-84
2023/07/01 00:47:02;;;;;;;0.30;0.30;;;;;;;13.27;100.00;100258.59;5022341;28;20483;-84
2023/07/01 00:49:27;;;;;;;0.65;0.40;;;;;;;13.25;100.00;100258.78;5021797;28;20028;-88
2023/07/01 00:51:53;;;;;;;0.50;0.40;;;;;;;13.28;100.00;100263.78;5038479;28;20127;-83
2023/07/01 00:54:19;;;;;;;0.43;0.30;;;;;;;13.26;100.00;100248.78;5005728;28;20037;-86
2023/07/01 00:56:45;;;;;;;0.38;0.35;;;;;;;13.24;100.00;100257.13;5021642;28;20029;-86
2023/07/01 00:59:10;;;;;;;0.85;0.60;;;;;;;13.20;100.00;100256.72;5054514;28;20479;-85
2023/07/01 01:01:42;;;;;;;0.40;0.40;;;;;;;13.28;100.00;100262.97;5038295;28;20071;-87
2023/07/01 01:04:16;;;;;;;0.70;0.50;;;;;;;13.25;100.00;100268.75;5038109;28;20115;-83
2023/07/01 01:06:49;;;;;;;1.33;0.63;;;;;;;13.26;100.00;100265.00;5037441;28;20388;-88
2023/07/01 01:09:27;;;;;;;0.57;0.47;;;;;;;13.22;100.00;100272.69;5037883;28;20025;-84
2023/07/01 01:11:53;;;;;;;0.95;0.57;;;;;;;13.17;100.00;100267.06;5054287;28;20033;-85
2023/07/01 01:14:20;;;;;;;0.47;0.40;;;;;;;13.05;100.00;100269.53;5021584;28;20040;-86
2023/07/01 01:16:46;;;;;;;0.60;0.50;;;;;;;12.98;100.00;100274.91;5021308;28;20025;-85
2023/07/01 01:19:21;;;;;;;0.45;0.38;;;;;;;12.94;100.00;100273.66;5037559;28;20033;-88
2023/07/01 01:22:26;;;;;;;0.45;0.40;;;;;;;12.87;100.00;100269.28;5021971;28;20043;-85
2023/07/01 01:24:54;;;;;;;0.35;0.35;;;;;;;12.82;100.00;100263.66;5042885;28;20040;-84
2023/07/01 01:27:27;;;;;;;0.30;0.30;;;;;;;12.80;100.00;100271.13;5021103;28;20040;-91
2023/07/01 01:29:53;;;;;;;0.75;0.52;;;;;;;12.81;100.00;100276.31;5020989;28;20126;-84
2023/07/01 01:32:19;;;;;;;0.57;0.40;;;;;;;12.77;100.00;100269.66;5021293;28;20540;-84
2023/07/01 01:34:46;;;;;;;0.55;0.47;;;;;;;12.74;100.00;100276.28;5037900;28;20080;-84
2023/07/01 01:37:14;;;;;;;0.40;0.40;;;;;;;12.73;100.00;100269.25;5037317;28;20029;-84
2023/07/01 01:39:45;;;;;;;0.50;0.43;;;;;;;12.71;100.00;100263.22;5053931;28;20039;-84
2023/07/01 01:42:17;;;;;;;0.73;0.40;;;;;;;12.67;100.00;100261.09;5036867;28;20511;-81
2023/07/01 01:44:51;;;;;;;0.20;0.20;;;;;;;12.68;100.00;100271.72;5054065;28;20028;-84
2023/07/01 01:47:30;;;;;;;0.65;0.40;;;;;;;12.68;100.00;100262.78;5021514;28;20040;-81
2023/07/01 01:50:02;;;;;;;0.40;0.40;;;;;;;12.68;100.00;100273.59;5020495;28;20120;-84
2023/07/01 01:52:30;;;;;;;0.30;0.30;;;;;;;12.64;100.00;100269.59;5053255;28;20125;-83
2023/07/01 01:54:58;;;;;;;0.52;0.40;;;;;;;12.65;100.00;100282.91;5053233;28;20032;-84
2023/07/01 01:57:24;;;;;;;0.47;0.40;;;;;;;12.63;100.00;100274.19;5053039;28;20025;-81
2023/07/01 01:59:49;;;;;;;0.30;0.30;;;;;;;12.61;100.00;100268.16;5020581;28;20494;-82
2023/07/01 02:02:15;;;;;;;0.43;0.43;;;;;;;12.62;100.00;100271.66;5020372;28;20033;-84
2023/07/01 02:04:41;;;;;;;0.40;0.40;;;;;;;12.59;100.00;100264.81;5020507;28;20033;-82
2023/07/01 02:07:06;;;;;;;0.40;0.40;;;;;;;12.56;100.00;100265.22;5019749;28;20537;-80
2023/07/01 02:09:32;;;;;;;0.40;0.30;;;;;;;12.58;100.00;100268.56;5053231;28;20063;-85
2023/07/01 02:12:01;;;;;;;0.35;0.35;;;;;;;12.57;100.00;100266.91;5037224;28;20123;-87
2023/07/01 02:14:26;;;;;;;0.57;0.40;;;;;;;12.53;100.00;100261.06;5052675;28;20127;-81
2023/07/01 02:16:53;;;;;;;0.30;0.30;;;;;;;12.54;100.00;100261.88;5053014;28;20060;-83
2023/07/01 02:19:18;;;;;;;0.30;0.30;;;;;;;12.60;100.00;100266.50;5053151;28;20082;-84
2023/07/01 02:21:44;;;;;;;0.60;0.43;;;;;;;12.66;100.00;100271.06;5052838;28;20029;-81
2023/07/01 02:24:10;;;;;;;0.35;0.32;;;;;;;12.68;100.00;100274.41;5020143;28;20076;-84
2023/07/01 02:26:36;;;;;;;0.85;0.50;;;;;;;12.70;100.00;100277.75;5020008;28;20123;-81
2023/07/01 02:29:02;;;;;;;0.63;0.50;;;;;;;12.70;100.00;100266.94;5052774;28;20044;-83
2023/07/01 02:31:28;;;;;;;0.57;0.40;;;;;;;12.66;100.00;100260.28;5020106;28;20128;-83
2023/07/01 02:34:03;;;;;;;0.47;0.40;;;;;;;12.67;100.00;100267.31;5052964;28;20033;-87
2023/07/01 02:36:29;;;;;;;0.35;0.30;;;;;;;12.63;100.00;100258.00;5051993;28;20086;-84
2023/07/01 02:38:55;;;;;;;0.32;0.30;;;;;;;12.60;100.00;100266.50;5019972;28;20044;-85
2023/07/01 02:41:22;;;;;;;0.57;0.52;;;;;;;12.56;100.00;100262.53;5020047;28;20194;-84
2023/07/01 02:43:48;;;;;;;0.47;0.40;;;;;;;12.55;100.00;100260.88;5019587;28;20392;-83
2023/07/01 02:46:30;;;;;;;;;;;;;;;;;;;;;
2023/07/01 02:49:08;;;;;;;0.45;0.40;;;;;;;12.52;100.00;100267.50;5052236;28;20025;-84
2023/07/01 02:51:33;;;;;;;0.30;0.30;;;;;;;12.53;100.00;100279.94;5019396;28;20375;-84
2023/07/01 02:53:59;;;;;;;0.30;0.30;;;;;;;12.51;100.00;100267.69;5052312;28;20045;-80
2023/07/01 02:56:25;;;;;;;0.93;0.50;;;;;;;12.49;100.00;100258.94;5018937;28;20029;-79
2023/07/01 02:58:53;;;;;;;0.68;0.40;;;;;;;12.51;100.00;100263.13;5035714;28;20036;-79
2023/07/01 03:01:21;;;;;;;0.30;0.30;;;;;;;12.54;100.00;100262.75;5020676;28;20159;-83
2023/07/01 03:03:49;;;;;;;0.77;0.47;;;;;;;12.56;100.00;100270.59;5052136;28;20028;-83
2023/07/01 03:06:16;;;;;;;0.38;0.38;;;;;;;12.57;100.00;100266.91;5052129;28;20041;-84
2023/07/01 03:08:42;;;;;;;0.38;0.38;;;;;;;12.56;100.00;100253.59;5035597;28;20054;-85
2023/07/01 03:11:07;;;;;;;0.40;0.40;;;;;;;12.55;100.00;100255.47;5019252;28;20468;-82
2023/07/01 03:13:35;;;;;;;0.30;0.30;;;;;;;12.53;100.00;100249.44;5035622;28;20033;-83
2023/07/01 03:16:01;;;;;;;0.30;0.30;;;;;;;12.55;100.00;100258.16;5035834;28;20036;-83
2023/07/01 03:18:27;;;;;;;2.70;0.52;;;;;;;12.54;100.00;100251.94;5019280;28;20124;-81
2023/07/01 03:20:52;;;;;;;0.30;0.30;;;;;;;12.53;100.00;100255.66;5035717;28;20041;-83
2023/07/01 03:23:18;;;;;;;0.50;0.40;;;;;;;12.54;100.00;100259.19;5035675;28;20044;-82
2023/07/01 03:25:43;;;;;;;0.47;0.40;;;;;;;12.56;100.00;100256.31;5035182;28;20110;-85
2023/07/01 03:28:09;;;;;;;0.65;0.47;;;;;;;12.57;100.00;100253.41;5052192;28;20399;-83
2023/07/01 03:30:35;;;;;;;0.43;0.40;;;;;;;12.57;100.00;100256.13;5019188;28;20115;-81
2023/07/01 03:33:01;;;;;;;0.30;0.30;;;;;;;12.59;100.00;100259.41;5019038;28;20441;-82
2023/07/01 03:35:26;;;;;;;0.30;0.30;;;;;;;12.61;100.00;100251.13;5052288;28;20063;-82
2023/07/01 03:37:52;;;;;;;0.52;0.40;;;;;;;12.59;100.00;100251.31;5019263;28;20033;-81
2023/07/01 03:40:18;;;;;;;0.43;0.40;;;;;;;12.60;100.00;100265.66;5019358;28;20043;-83
2023/07/01 03:42:44;;;;;;;0.73;0.45;;;;;;;12.57;100.00;100261.50;5018857;28;20444;-83
2023/07/01 03:45:13;;;;;;;0.30;0.30;;;;;;;12.60;100.00;100255.69;5052117;28;20025;-80
2023/07/01 03:47:45;;;;;;;0.63;0.40;;;;;;;12.60;100.00;100260.28;5019346;28;20076;-80
2023/07/01 03:50:12;;;;;;;0.63;0.40;;;;;;;12.59;100.00;100259.41;5051837;28;20526;-83
2023/07/01 03:52:38;;;;;;;1.10;0.60;;;;;;;12.60;100.00;100266.50;5018751;28;20143;-82
2023/07/01 03:55:05;;;;;;;1.00;0.55;;;;;;;12.58;100.00;100257.75;5002306;28;20051;-86
2023/07/01 03:57:32;;;;;;;0.70;0.50;;;;;;;12.56;100.00;100251.72;5035033;28;20033;-83
2023/07/01 03:59:57;;;;;;;0.32;0.30;;;;;;;12.57;100.00;100250.72;5018666;28;20037;-79
2023/07/01 04:02:23;;;;;;;0.43;0.38;;;;;;;12.56;100.00;100251.72;5035214;28;20380;-81
2023/07/01 04:04:49;;;;;;;0.40;0.40;;;;;;;12.60;100.00;100244.09;5021652;28;20033;-84
2023/07/01 04:07:15;;;;;;;0.38;0.35;;;;;;;12.60;100.00;100244.09;5022281;28;20039;-83
2023/07/01 04:09:41;;;;;;;0.52;0.40;;;;;;;12.60;100.00;100241.38;5055445;28;20091;-83
2023/07/01 04:12:11;;;;;;;0.30;0.30;;;;;;;12.61;100.00;100251.13;5023779;28;20037;-79
2023/07/01 04:14:37;;;;;;;0.30;0.30;;;;;;;12.65;100.00;100241.59;5022080;28;20036;-86
2023/07/01 04:17:05;;;;;;;0.40;0.30;;;;;;;12.68;100.00;100244.72;5055389;28;20070;-86
2023/07/01 04:19:31;;;;;;;0.80;0.50;;;;;;;12.63;100.00;100233.72;5055172;28;20078;-81
2023/07/01 04:21:57;;;;;;;0.50;0.40;;;;;;;12.64;100.00;100223.75;5039031;28;20033;-79
2023/07/01 04:24:23;;;;;;;0.55;0.40;;;;;;;12.71;100.00;100244.31;5022129;28;20033;-82
2023/07/01 04:26:49;;;;;;;0.32;0.32;;;;;;;12.73;100.00;100236.88;5038901;28;20040;-83
2023/07/01 04:29:14;;;;;;;0.55;0.45;;;;;;;12.75;100.00;100242.03;5038416;28;20025;-82
2023/07/01 04:31:40;;;;;;;0.65;0.40;;;;;;;12.79;100.00;100243.31;5038480;28;20032;-82
2023/07/01 04:34:06;;;;;;;0.63;0.45;;;;;;;12.81;100.00;100245.78;5022202;28;20049;-85
2023/07/01 04:36:31;;;;;;;0.75;0.43;;;;;;;12.84;100.00;100248.94;5038241;28;20078;-84
2023/07/01 04:38:57;;;;;;;0.28;0.28;;;;;;;12.80;100.00;100234.19;5022397;28;20033;-85
2023/07/01 04:41:22;;;;;;;0.20;0.20;;;;;;;12.86;100.00;100251.41;5038274;28;20482;-81
2023/07/01 04:43:48;;;;;;;0.38;0.35;;;;;;;12.86;100.00;100244.19;5022098;28;20040;-84
2023/07/01 04:46:14;;;;;;;0.60;0.50;;;;;;;12.87;100.00;100251.22;5022014;28;20021;-83
2023/07/01 04:48:42;;;;;;;0.45;0.40;;;;;;;12.88;100.00;100246.66;5038805;28;20082;-89
2023/07/01 04:51:08;;;;;;;1.05;0.60;;;;;;;12.88;100.00;100243.97;5021287;28;20037;-89
2023/07/01 04:53:33;;;;;;;0.30;0.30;;;;;;;12.90;100.00;100252.69;5021794;28;20265;-84
2023/07/01 04:55:59;;;;;;;0.40;0.30;;;;;;;12.88;100.00;100238.56;5037551;28;20045;-83
2023/07/01 04:58:25;;;;;;;0.35;0.30;;;;;;;12.87;100.00;100245.00;5021796;28;20427;-85
2023/07/01 05:00:53;;;;;;;0.40;0.35;;;;;;;12.88;100.00;100241.25;5038133;28;20060;-85
2023/07/01 05:03:19;;;;;;;0.30;0.30;;;;;;;12.83;100.00;100241.84;5021780;28;20029;-85
2023/07/01 05:05:44;;;;;;;0.40;0.40;;;;;;;12.81;100.00;100251.19;5037610;28;20036;-84
2023/07/01 05:08:12;;;;;;;0.43;0.40;;;;;;;12.82;100.00;100244.78;5021486;28;20106;-81
2023/07/01 05:10:38;;;;;;;0.40;0.40;;;;;;;12.83;100.00;100244.56;5021209;28;20444;-81
2023/07/01 05:13:04;;;;;;;0.65;0.65;;;;;;;12.82;100.00;100242.09;5020962;28;20055;-84
2023/07/01 05:15:30;;;;;;;0.40;0.40;;;;;;;12.87;100.00;100250.41;5020804;28;20434;-84
2023/07/01 05:17:55;;;;;;;0.57;0.40;;;;;;;12.94;100.00;100246.69;5021478;28;20119;-85
2023/07/01 05:20:23;;;;;;;0.35;0.35;;;;;;;12.98;100.00;100255.19;5054469;28;20047;-85
2023/07/01 05:22:49;;;;;;;0.32;0.32;;;;;;;13.04;100.00;100257.06;5020856;28;20183;-85
2023/07/01 05:25:15;;;;;;;0.93;0.47;;;;;;;13.06;100.00;100259.56;5021656;28;20033;-84
2023/07/01 05:27:41;;;;;;;0.45;0.43;;;;;;;13.05;100.00;100257.94;5037354;28;20039;-85
2023/07/01 05:30:07;;;;;;;0.50;0.47;;;;;;;13.06;100.00;100259.56;5053999;28;20029;-83
2023/07/01 05:32:33;;;;;;;0.57;0.40;;;;;;;13.02;100.00;100266.41;5037571;28;20387;-82
2023/07/01 05:34:58;;;;;;;10.80;0.73;;;;;;;12.93;100.00;100263.06;5057026;28;20031;-83
2023/07/01 05:37:24;;;;;;;0.68;0.60;;;;;;;12.90;100.00;100271.56;5041629;28;20047;-84
2023/07/01 05:39:50;;;;;;;0.82;0.60;;;;;;;13.13;100.00;100276.63;5026616;28;20032;-84
2023/07/01 05:42:15;;;;;;;0.88;0.57;;;;;;;13.36;100.00;100277.13;5036970;28;20032;-81
2023/07/01 05:44:41;;;;;;;0.90;0.50;;;;;;;13.37;100.00;100273.38;5037494;28;20033;-88
2023/07/01 05:47:06;;;;;;;0.40;0.40;;;;;;;13.33;100.00;100272.09;5037097;28;20483;-86
2023/07/01 05:49:35;;;;;;;0.30;0.30;;;;;;;13.38;100.00;100274.19;5037058;28;20060;-83
2023/07/01 05:52:03;;;;;;;0.68;0.50;;;;;;;13.34;100.00;100279.19;5021161;28;20040;-82
2023/07/01 05:54:29;;;;;;;1.35;0.93;;;;;;;13.52;100.00;100285.84;5020333;28;20082;-84
2023/07/01 05:56:58;;;;;;;0.50;0.50;;;;;;;13.81;100.00;100290.00;5020527;28;20104;-83
2023/07/01 05:59:25;;;;;;;0.40;0.40;;;;;;;14.17;100.00;100291.44;5038828;28;20482;-85
2023/07/01 06:01:53;;;;;;;1.65;0.82;;;;;;;14.15;100.00;100291.63;5029756;28;20055;-79
2023/07/01 06:04:22;;;;;;;0.98;0.88;;;;;;;14.19;100.00;100295.59;5055148;28;20025;-85
2023/07/01 06:06:50;;;;;;;0.75;0.63;;;;;;;14.84;100.00;100290.19;5053426;28;20387;-84
2023/07/01 06:09:16;;;;;;;1.20;1.10;;;;;;;15.75;100.00;100290.91;5053490;28;20025;-86
2023/07/01 06:11:43;;;;;;;1.67;0.95;;;;;;;16.57;100.00;100288.00;5037130;28;20124;-83
2023/07/01 06:14:09;;;;;;;1.70;0.98;;;;;;;17.09;100.00;100288.41;5036596;28;20115;-86
2023/07/01 06:16:37;;;;;;;0.73;0.73;;;;;;;17.05;100.00;100277.19;5020689;28;20459;-86
2023/07/01 06:19:02;;;;;;;0.52;0.45;;;;;;;16.62;100.00;100290.88;5053992;28;20048;-83
2023/07/01 06:21:28;;;;;;;0.65;0.47;;;;;;;15.79;100.00;100302.97;5020264;28;20056;-83
2023/07/01 06:23:55;;;;;;;1.05;0.77;;;;;;;15.26;100.00;100298.72;5019927;28;20036;-86
2023/07/01 06:26:21;;;;;;;0.68;0.52;;;;;;;14.82;100.00;100297.72;5036505;28;20086;-83
2023/07/01 06:28:49;;;;;;;0.85;0.47;;;;;;;14.44;100.00;100303.00;5050644;28;20051;-86
2023/07/01 06:31:15;;;;;;;1.60;1.50;;;;;;;14.14;100.00;100297.25;5018639;28;20475;-84
2023/07/01 06:33:43;;;;;;;1.38;0.82;;;;;;;13.93;100.00;100299.16;5036624;28;20041;-85
2023/07/01 06:36:12;;;;;;;1.30;1.20;;;;;;;13.83;100.00;100299.56;5036155;28;20052;-87
2023/07/01 06:38:40;;;;;;;1.65;1.38;;;;;;;13.83;100.00;100299.56;5019998;28;20041;-82
2023/07/01 06:41:08;;;;;;;3.08;2.58;;;;;;;13.86;100.00;100298.31;5036405;28;20068;-85
2023/07/01 06:43:39;;;;;;;0.93;0.80;;;;;;;13.90;100.00;100298.75;5052528;28;20071;-82
2023/07/01 06:46:06;;;;;;;6.40;4.13;;;;;;;14.00;100.00;100291.88;5035959;28;20391;-83
2023/07/01 06:48:32;;;;;;;4.13;2.45;;;;;;;14.61;100.00;100279.06;5019690;28;20044;-86
2023/07/01 06:50:58;;;;;;;4.13;2.38;;;;;;;15.56;100.00;100292.72;5036157;28;20041;-82
2023/07/01 06:53:24;;;;;;;9.27;4.35;;;;;;;15.54;100.00;100294.78;5035636;28;20373;-86
2023/07/01 06:55:50;;;;;;;7.60;2.85;;;;;;;15.39;100.00;100293.22;5053619;28;20088;-84
2023/07/01 06:58:16;;;;;;;9.65;3.25;;;;;;;15.09;100.00;100297.59;5052107;28;20057;-84
2023/07/01 07:00:44;;;;;;;10.88;5.75;;;;;;;14.86;100.00;100304.34;5019443;28;20079;-88
2023/07/01 07:03:29;;;;;;;8.45;4.03;;;;;;;15.81;100.00;100295.44;5035819;28;20159;-83
2023/07/01 07:05:55;;;;;;;6.97;3.97;;;;;;;15.97;100.00;100307.59;5019463;28;20106;-83
2023/07/01 07:08:21;;;;;;;12.50;5.43;;;;;;;15.64;100.00;100311.41;5052103;28;20124;-84
2023/07/01 07:10:47;;;;;;;23.00;8.13;;;;;;;17.27;100.00;100292.97;5035014;28;20108;-82
2023/07/01 07:13:13;;;;;;;8.10;4.40;;;;;;;17.91;100.00;100310.38;5035032;28;20045;-89
2023/07/01 07:15:40;;;;;;;12.68;7.10;;;;;;;18.35;100.00;100307.31;5035740;28;20140;-85
2023/07/01 07:18:09;;;;;;;20.13;7.88;;;;;;;19.28;100.00;100305.44;5035624;28;20464;-83
2023/07/01 07:20:38;;;;;;;25.60;9.15;;;;;;;19.16;100.00;100305.50;5036468;28;20037;-88
2023/07/01 07:23:06;;;;;;;22.13;10.75;;;;;;;17.94;100.00;100309.94;5018815;28;20033;-84
2023/07/01 07:25:35;;;;;;;19.83;8.93;;;;;;;19.30;100.00;100295.94;5051712;28;20040;-83
2023/07/01 07:28:03;;;;;;;24.27;9.15;;;;;;;20.71;99.57;100306.88;5019017;28;20033;-83
2023/07/01 07:30:32;;;;;;;20.05;7.50;;;;;;;21.59;93.92;100312.22;5019175;28;20127;-84
2023/07/01 07:32:58;;;;;;;20.25;8.77;;;;;;;22.00;87.91;100315.31;5051541;28;20029;-85
2023/07/01 07:35:23;;;;;;;24.33;9.02;;;;;;;22.24;85.92;100315.78;5035495;28;20029;-87
2023/07/01 07:37:52;;;;;;;20.65;7.65;;;;;;;22.78;84.01;100308.16;5035926;28;20051;-82
2023/07/01 07:40:19;;;;;;;16.98;7.82;;;;;;;22.33;85.82;100320.53;5054957;28;20078;-86
2023/07/01 07:42:45;;;;;;;16.13;9.10;;;;;;;22.24;86.97;100316.59;5039350;28;20033;-85
2023/07/01 07:45:10;;;;;;;19.80;8.05;;;;;;;23.14;79.45;100321.16;5055818;28;20032;-83
2023/07/01 07:47:36;;;;;;;22.55;8.55;;;;;;;23.44;77.55;100317.66;5040044;28;20098;-88
2023/07/01 07:50:02;;;;;;;19.17;8.82;;;;;;;23.43;76.18;100316.84;5057302;28;20021;-88
2023/07/01 07:52:30;;;;;;;20.92;8.23;;;;;;;23.18;80.91;100320.38;5038990;28;20047;-87
2023/07/01 07:54:55;;;;;;;19.27;8.60;;;;;;;22.71;79.78;100320.44;5055912;28;20064;-89
2023/07/01 07:57:21;;;;;;;22.35;8.55;;;;;;;22.56;81.16;100326.66;5022861;28;20060;-85
2023/07/01 07:59:47;;;;;;;18.95;8.82;;;;;;;23.22;75.62;100310.50;5039460;28;20043;-85
2023/07/01 08:02:12;;;;;;;15.25;7.22;;;;;;;23.59;74.87;100328.66;5022778;28;20037;-87
2023/07/01 08:04:38;;;;;;;24.20;8.98;;;;;;;23.78;74.15;100320.75;5055601;28;20025;-88
2023/07/01 08:07:04;;;;;;;15.73;6.85;;;;;;;24.30;72.69;100324.28;5039150;28;20131;-88
2023/07/01 08:09:31;;;;;;;16.55;7.65;;;;;;;24.73;67.39;100324.72;5055890;28;20390;-89
2023/07/01 08:12:00;;;;;;;14.02;6.72;;;;;;;24.61;66.45;100316.81;5039154;28;20468;-88
2023/07/01 08:14:26;;;;;;;15.18;6.85;;;;;;;24.77;68.06;100323.06;5039372;28;20033;-91
2023/07/01 08:16:53;;;;;;;19.10;7.60;;;;;;;24.84;59.42;100328.25;5039316;28;20528;-88
2023/07/01 08:19:19;;;;;;;17.85;10.35;;;;;;;25.00;55.44;100325.16;5006577;28;20140;-87
2023/07/01 08:21:45;;;;;;;15.88;7.63;;;;;;;25.12;56.68;100335.00;5038828;28;20123;-87
2023/07/01 08:24:10;;;;;;;11.23;6.13;;;;;;;24.03;61.77;100317.16;5022429;28;20028;-82
2023/07/01 08:26:36;;;;;;;19.75;7.63;;;;;;;24.66;58.81;100326.94;5022578;28;20036;-80
2023/07/01 08:29:03;;;;;;;14.38;6.68;;;;;;;25.09;52.50;100324.56;5056181;28;20029;-79
2023/07/01 08:31:31;;;;;;;19.80;9.13;;;;;;;25.58;51.11;100320.97;5056355;28;20071;-80
2023/07/01 08:33:57;;;;;;;12.40;6.43;;;;;;;26.38;45.61;100323.31;5055295;28;20432;-80
2023/07/01 08:36:24;;;;;;;16.77;7.45;;;;;;;27.05;42.52;100320.63;5038985;28;20463;-81
2023/07/01 08:38:50;;;;;;;13.82;7.00;;;;;;;25.23;46.11;100329.19;5038586;28;20052;-83
2023/07/01 08:41:18;;;;;;;17.10;7.43;;;;;;;23.18;50.98;100325.00;5056230;28;20029;-82
2023/07/01 08:43:47;;;;;;;23.42;7.65;;;;;;;21.33;55.79;100336.59;5055076;28;20029;-81
2023/07/01 08:46:15;;;;;;;21.33;8.35;;;;;;;20.12;60.27;100341.00;5039705;28;20048;-81
2023/07/01 08:48:43;;;;;;;16.20;6.68;;;;;;;19.49;64.45;100336.63;5055035;28;20027;-81
2023/07/01 08:51:22;;;;;;;25.10;9.00;;;;;;;20.15;64.34;100339.66;5020522;28;20036;-81
2023/07/01 08:53:48;;;;;;;22.48;7.63;;;;;;;20.73;62.73;100335.59;5056077;28;20099;-82
2023/07/01 08:56:14;;;;;;;19.85;7.57;;;;;;;21.01;61.23;100348.25;5021976;28;20123;-81
2023/07/01 08:58:41;;;;;;;24.67;9.48;;;;;;;19.81;64.07;100357.94;5037955;28;20047;-82
2023/07/01 09:01:07;;;;;;;23.45;8.10;;;;;;;19.10;67.60;100342.72;5055848;28;20041;-81
2023/07/01 09:03:36;;;;;;;25.50;8.15;;;;;;;19.09;69.37;100335.59;5037832;28;20040;-80
2023/07/01 09:06:05;;;;;;;27.35;8.02;;;;;;;19.81;67.13;100356.03;5055404;28;20036;-81
2023/07/01 09:08:33;;;;;;;16.17;7.40;;;;;;;20.30;66.17;100352.72;5038511;28;20033;-82
2023/07/01 09:10:59;;;;;;;19.90;8.07;;;;;;;19.94;67.50;100342.06;5054499;28;20475;-81
2023/07/01 09:13:26;;;;;;;19.15;7.55;;;;;;;19.84;66.46;100360.97;5054741;28;20033;-81
2023/07/01 09:15:52;;;;;;;18.83;7.78;;;;;;;19.33;67.29;100354.59;5055643;28;20028;-81
2023/07/01 09:18:20;;;;;;;21.50;6.53;;;;;;;18.95;70.70;100360.66;5037593;28;20388;-81
2023/07/01 09:20:47;;;;;;;23.50;8.80;;;;;;;19.71;68.32;100361.31;5054099;28;20033;-82
2023/07/01 09:23:25;;;;;;;21.10;8.23;;;;;;;19.85;65.51;100361.84;5054316;28;20090;-82
2023/07/01 09:25:51;;;;;;;17.38;7.07;;;;;;;21.04;61.90;100346.94;5038046;28;20139;-82
2023/07/01 09:28:29;;;;;;;13.88;7.10;;;;;;;22.34;53.48;100360.50;5020999;28;20487;-88
2023/07/01 09:30:59;;;;;;;21.88;8.52;;;;;;;24.72;48.42;100358.84;5037411;28;20025;-83
2023/07/01 09:33:24;;;;;;;13.90;7.22;;;;;;;24.55;45.18;100353.63;5054173;28;20590;-91
2023/07/01 09:35:57;;;;;;;16.55;7.50;;;;;;;25.72;42.75;100357.78;5054201;28;20039;-83
2023/07/01 09:38:26;;;;;;;16.23;7.85;;;;;;;25.30;44.24;100352.81;5036981;28;20105;-84
2023/07/01 09:40:51;;;;;;;14.27;7.75;;;;;;;24.77;43.96;100356.06;5037272;28;20045;-85
2023/07/01 09:43:19;;;;;;;19.00;7.93;;;;;;;25.75;42.36;100348.94;5054429;28;20055;-84
2023/07/01 09:45:55;;;;;;;10.65;5.20;;;;;;;27.08;38.51;100353.16;5020702;28;20049;-83
2023/07/01 09:48:22;;;;;;;17.38;8.25;;;;;;;27.55;38.03;100362.47;5020651;28;20087;-86
2023/07/01 09:50:51;;;;;;;17.52;8.68;;;;;;;28.26;33.33;100349.44;5020391;28;20033;-86
2023/07/01 09:53:21;;;;;;;12.75;7.45;;;;;;;26.26;36.25;100343.00;5020815;28;20041;-83
2023/07/01 09:55:47;;;;;;;14.38;6.65;;;;;;;25.63;38.63;100352.06;5037141;28;20142;-84
2023/07/01 09:58:14;;;;;;;18.75;8.50;;;;;;;26.46;37.22;100353.03;5020253;28;20041;-83
2023/07/01 10:00:44;;;;;;;19.33;7.55;;;;;;;27.28;34.60;100373.31;5037018;28;20039;-85
2023/07/01 10:03:10;;;;;;;21.30;10.60;;;;;;;26.67;34.90;100348.13;5036152;28;20098;-84
2023/07/01 10:05:36;;;;;;;13.55;7.45;;;;;;;24.82;39.08;100342.28;5037235;28;20036;-83
2023/07/01 10:08:03;;;;;;;18.00;7.82;;;;;;;24.64;39.87;100362.16;5037150;28;20041;-86
2023/07/01 10:10:30;;;;;;;19.52;8.20;;;;;;;23.27;42.24;100350.81;5052750;28;20063;-83
2023/07/01 10:12:58;;;;;;;15.02;8.25;;;;;;;22.21;44.98;100360.97;5020473;28;20411;-84
2023/07/01 10:15:31;;;;;;;19.13;7.78;;;;;;;21.87;45.13;100368.59;5053054;28;20029;-89
2023/07/01 10:17:58;;;;;;;21.90;8.27;;;;;;;20.93;48.69;100373.31;5036733;28;20032;-84
2023/07/01 10:20:28;;;;;;;16.05;7.70;;;;;;;20.38;50.63;100372.25;5036536;28;20483;-84
2023/07/01 10:22:59;;;;;;;18.30;8.25;;;;;;;22.46;47.50;100375.91;5020672;28;20032;-89
2023/07/01 10:25:32;;;;;;;15.82;7.55;;;;;;;22.92;45.80;100382.47;5022228;28;20033;-87
2023/07/01 10:27:59;;;;;;;21.88;7.97;;;;;;;23.14;44.04;100389.72;5038296;28;20502;-87
2023/07/01 10:30:25;;;;;;;18.67;9.15;;;;;;;22.60;46.65;100383.41;5036376;28;20132;-84
2023/07/01 10:32:51;;;;;;;13.15;7.97;;;;;;;22.05;47.18;100386.53;5036292;28;20037;-87
2023/07/01 10:35:18;;;;;;;12.10;7.07;;;;;;;22.03;47.29;100385.97;5036141;28;20029;-85
2023/07/01 10:38:21;;;;;;;21.42;7.60;;;;;;;21.57;47.60;100383.63;5036300;28;20032;-84
2023/07/01 10:40:47;;;;;;;15.70;6.40;;;;;;;23.73;42.71;100381.13;5017941;28;20047;-85
2023/07/01 10:43:36;;;;;;;18.58;7.63;;;;;;;24.57;38.96;100378.94;5020016;28;20026;-83
2023/07/01 10:46:23;;;;;;;15.45;6.60;;;;;;;22.48;43.88;100390.19;5036823;28;20471;-82
2023/07/01 10:49:04;;;;;;;15.30;6.78;;;;;;;23.54;42.13;100399.19;5035835;28;20032;-85
2023/07/01 10:51:33;;;;;;;15.00;8.80;;;;;;;25.49;36.71;100362.06;5052934;28;20035;-88
2023/07/01 10:54:02;;;;;;;13.82;6.43;;;;;;;27.00;34.96;100386.91;5036322;28;20029;-87
2023/07/01 10:56:30;;;;;;;15.10;6.78;;;;;;;26.32;36.39;100383.19;5052810;28;20037;-85
2023/07/01 10:59:21;;;;;;;13.15;5.57;;;;;;;28.42;32.53;100391.44;5019987;28;20040;-85
2023/07/01 11:01:51;;;;;;;12.27;5.85;;;;;;;25.91;35.85;100390.16;5035706;28;20029;-84
2023/07/01 11:04:18;;;;;;;13.98;5.82;;;;;;;23.44;40.08;100389.00;5052437;28;20068;-89
2023/07/01 11:06:54;;;;;;;13.02;5.82;;;;;;;21.64;43.80;100391.63;5035211;28;20060;-89
2023/07/01 11:09:32;;;;;;;12.38;5.72;;;;;;;20.07;48.67;100392.75;5051641;28;20037;-88
2023/07/01 11:12:08;;;;;;;11.57;6.13;;;;;;;19.25;52.04;100406.78;5019544;28;20032;-87
2023/07/01 11:14:39;;;;;;;17.05;6.53;;;;;;;19.01;54.90;100395.94;5018665;28;20040;-88
2023/07/01 11:17:07;;;;;;;19.98;7.53;;;;;;;19.55;54.14;100403.81;5019614;28;20104;-87
2023/07/01 11:19:32;;;;;;;14.15;6.35;;;;;;;21.34;50.93;100401.13;5035454;28;20040;-89
2023/07/01 11:21:58;;;;;;;15.77;8.80;;;;;;;22.70;43.60;100410.03;5035763;28;20123;-89